Time;durP1;ratioP1;P1;durP2;ratioP2;P2;SDS_P1;SDS_P2;PMS_P1;PMS_P2;Temp;Humidity;BMP_temperature;BMP_pressure;BME280_temperature;BME280_humidity;BME280_pressure;Samples;Min_cycle;Max_cycle;Signal;HPM_P1;HPM_P2
2021/01/09 00:02:13;;;;;;;;;;;;;;;;;;5070720;28;19909;-70
2021/01/09 00:04:40;;;;;;;;;;;;;;;;;;5070672;28;19962;-70
2021/01/09 00:07:06;;;;;;;;;;;;;;;;;;5053071;28;19995;-69
2021/01/09 00:09:32;;;;;;;;;;;;;;;;;;5075198;28;19947;-69
2021/01/09 00:11:58;;;;;;;;;;;;;;;;;;5071024;28;19999;-70
2021/01/09 00:14:24;;;;;;;;;;;;;;;;;;5079487;28;19987;-71
2021/01/09 00:16:50;;;;;;;;;;;;;;;;;;5075387;28;19908;-70
2021/01/09 00:19:16;;;;;;;;;;;;;;;;;;5070554;28;19913;-70
2021/01/09 00:21:42;;;;;;;;;;;;;;;;;;5070563;28;19908;-69
2021/01/09 00:24:07;;;;;;;;;;;;;;;;;;5071593;28;19909;-70
2021/01/09 00:26:33;;;;;;;;;;;;;;;;;;5070272;28;19954;-70
2021/01/09 00:28:59;;;;;;;;;;;;;;;;;;5070172;28;19916;-69
2021/01/09 00:31:25;;;;;;;;;;;;;;;;;;5070359;28;19943;-70
2021/01/09 00:33:51;;;;;;;;;;;;;;;;;;5070570;28;20536;-70
2021/01/09 00:36:17;;;;;;;;;;;;;;;;;;5069229;28;20165;-69
2021/01/09 00:38:43;;;;;;;;;;;;;;;;;;5079331;28;20000;-69
2021/01/09 00:41:09;;;;;;;;;;;;;;;;;;5070101;28;20303;-70
2021/01/09 00:43:35;;;;;;;;;;;;;;;;;;5070463;28;19947;-70
2021/01/09 00:46:01;;;;;;;;;;;;;;;;;;5069999;28;20454;-69
2021/01/09 00:48:27;;;;;;;;;;;;;;;;;;5058692;28;19908;-70
2021/01/09 00:50:52;;;;;;;;;;;;;;;;;;5053846;28;19909;-70
2021/01/09 00:53:18;;;;;;;;;;;;;;;;;;5072428;28;19908;-70
2021/01/09 00:55:44;;;;;;;;;;;;;;;;;;5073969;28;19979;-70
2021/01/09 00:58:10;;;;;;;;;;;;;;;;;;5073558;28;20003;-70
2021/01/09 01:00:36;;;;;;;;;;;;;;;;;;5073826;28;19953;-70
2021/01/09 01:03:02;;;;;;;;;;;;;;;;;;5073404;28;20326;-69
2021/01/09 01:05:28;;;;;;;;;;;;;;;;;;5055514;28;20014;-68
2021/01/09 01:07:54;;;;;;;;;;;;;;;;;;5111963;22;19940;-70
2021/01/09 01:10:20;;;;;;;;;;;;;;;;;;5059855;28;19912;-70
2021/01/09 01:12:45;;;;;;;;;;;;;;;;;;5052908;28;19909;-71
2021/01/09 01:15:11;;;;;;;;;;;;;;;;;;5053695;28;19916;-71
2021/01/09 01:17:37;;;;;;;;;;;;;;;;;;5045025;28;20443;-71
2021/01/09 01:20:03;;;;;;;;;;;;;;;;;;5034160;28;19963;-71
2021/01/09 01:22:29;;;;;;;;;;;;;;;;;;5032239;28;19963;-73
2021/01/09 01:24:55;;;;;;;;;;;;;;;;;;5033025;28;19913;-70
2021/01/09 01:27:21;;;;;;;;;;;;;;;;;;5034147;28;19948;-69
2021/01/09 01:29:47;;;;;;;;;;;;;;;;;;5033817;28;19913;-70
2021/01/09 01:32:13;;;;;;;;;;;;;;;;;;5033987;28;19917;-70
2021/01/09 01:34:39;;;;;;;;;;;;;;;;;;5034219;28;19980;-71
2021/01/09 01:37:05;;;;;;;;;;;;;;;;;;5033248;28;20300;-71
2021/01/09 01:39:30;;;;;;;;;;;;;;;;;;5043537;28;19971;-72
2021/01/09 01:41:56;;;;;;;;;;;;;;;;;;5033482;28;19947;-72
2021/01/09 01:44:22;;;;;;;;;;;;;;;;;;5032904;28;20021;-70
2021/01/09 01:46:48;;;;;;;;;;;;;;;;;;5033558;28;19913;-71
2021/01/09 01:49:14;;;;;;;;;;;;;;;;;;5033390;28;19963;-71
2021/01/09 01:51:40;;;;;;;;;;;;;;;;;;5033248;28;19910;-70
2021/01/09 01:54:06;;;;;;;;;;;;;;;;;;5032321;28;19962;-70
2021/01/09 01:56:32;;;;;;;;;;;;;;;;;;5033485;28;20042;-71
2021/01/09 01:58:58;;;;;;;;;;;;;;;;;;5031952;28;19996;-70
2021/01/09 02:01:24;;;;;;;;;;;;;;;;;;5033299;28;19980;-70
2021/01/09 02:03:49;;;;;;;;;;;;;;;;;;5033217;28;19919;-71
2021/01/09 02:06:15;;;;;;;;;;;;;;;;;;5035598;28;19994;-71
2021/01/09 02:08:41;;;;;;;;;;;;;;;;;;5044107;28;19963;-73
2021/01/09 02:11:07;;;;;;;;;;;;;;;;;;5039899;28;20412;-70
2021/01/09 02:13:33;;;;;;;;;;;;;;;;;;5054048;28;19916;-71
2021/01/09 02:15:59;;;;;;;;;;;;;;;;;;5032957;28;19963;-71
2021/01/09 02:18:25;;;;;;;;;;;;;;;;;;5032645;28;20270;-71
2021/01/09 02:20:51;;;;;;;;;;;;;;;;;;5033098;28;19910;-70
2021/01/09 02:23:17;;;;;;;;;;;;;;;;;;5032842;28;20373;-71
2021/01/09 02:25:43;;;;;;;;;;;;;;;;;;5032684;28;19909;-71
2021/01/09 02:28:09;;;;;;;;;;;;;;;;;;5031034;28;19960;-72
2021/01/09 02:30:35;;;;;;;;;;;;;;;;;;5031479;28;19941;-72
2021/01/09 02:33:00;;;;;;;;;;;;;;;;;;5032522;28;19909;-70
2021/01/09 02:35:26;;;;;;;;;;;;;;;;;;5032884;28;19909;-71
2021/01/09 02:37:52;;;;;;;;;;;;;;;;;;5031167;28;19961;-71
2021/01/09 02:40:18;;;;;;;;;;;;;;;;;;5034153;28;20018;-71
2021/01/09 02:42:44;;;;;;;;;;;;;;;;;;5044929;28;20034;-70
2021/01/09 02:45:10;;;;;;;;;;;;;;;;;;5032690;28;19963;-72
2021/01/09 02:47:36;;;;;;;;;;;;;;;;;;5032082;28;19913;-71
2021/01/09 02:50:02;;;;;;;;;;;;;;;;;;5032113;28;19949;-71
2021/01/09 02:52:28;;;;;;;;;;;;;;;;;;5032280;28;20395;-71
2021/01/09 02:54:54;;;;;;;;;;;;;;;;;;5032029;28;19956;-71
2021/01/09 02:57:19;;;;;;;;;;;;;;;;;;5031929;28;19952;-73
2021/01/09 02:59:45;;;;;;;;;;;;;;;;;;5032152;28;20004;-70
2021/01/09 03:02:11;;;;;;;;;;;;;;;;;;5032104;28;19967;-71
2021/01/09 03:04:37;;;;;;;;;;;;;;;;;;5032166;28;20382;-72
2021/01/09 03:07:03;;;;;;;;;;;;;;;;;;5031500;28;19945;-70
2021/01/09 03:09:29;;;;;;;;;;;;;;;;;;5031600;28;20019;-72
2021/01/09 03:11:55;;;;;;;;;;;;;;;;;;5045057;28;19915;-71
2021/01/09 03:14:21;;;;;;;;;;;;;;;;;;5034601;28;19910;-70
2021/01/09 03:16:47;;;;;;;;;;;;;;;;;;5031321;28;20395;-71
2021/01/09 03:19:13;;;;;;;;;;;;;;;;;;5031810;28;19956;-73
2021/01/09 03:21:39;;;;;;;;;;;;;;;;;;5031961;28;19916;-71
2021/01/09 03:24:04;;;;;;;;;;;;;;;;;;5039704;28;19959;-71
2021/01/09 03:26:30;;;;;;;;;;;;;;;;;;5042725;28;19983;-71
2021/01/09 03:28:56;;;;;;;;;;;;;;;;;;5031262;28;20447;-71
2021/01/09 03:31:24;;;;;;;;;;;;;;;;;;5030345;28;19920;-71
2021/01/09 03:33:49;;;;;;;;;;;;;;;;;;5025216;28;19913;-70
2021/01/09 03:36:15;;;;;;;;;;;;;;;;;;5047008;28;20035;-70
2021/01/09 03:38:41;;;;;;;;;;;;;;;;;;5054046;28;20448;-69
2021/01/09 03:41:07;;;;;;;;;;;;;;;;;;5047483;28;19909;-70
2021/01/09 03:43:33;;;;;;;;;;;;;;;;;;5031877;28;19956;-70
2021/01/09 03:45:59;;;;;;;;;;;;;;;;;;5032670;28;19952;-70
2021/01/09 03:48:25;;;;;;;;;;;;;;;;;;5034389;28;19909;-73
2021/01/09 03:50:51;;;;;;;;;;;;;;;;;;5046359;28;19904;-72
2021/01/09 03:53:17;;;;;;;;;;;;;;;;;;5051842;28;19909;-72
2021/01/09 03:55:43;;;;;;;;;;;;;;;;;;5030205;28;20529;-70
2021/01/09 03:58:09;;;;;;;;;;;;;;;;;;5029740;28;20000;-69
2021/01/09 04:00:35;;;;;;;;;;;;;;;;;;5031532;28;19937;-70
2021/01/09 04:03:01;;;;;;;;;;;;;;;;;;5031173;28;19971;-69
2021/01/09 04:05:27;;;;;;;;;;;;;;;;;;5046673;28;19948;-70
2021/01/09 04:07:53;;;;;;;;;;;;;;;;;;5030734;28;19968;-70
2021/01/09 04:10:19;;;;;;;;;;;;;;;;;;5030103;28;19929;-69
2021/01/09 04:12:44;;;;;;;;;;;;;;;;;;5031226;28;19967;-70
2021/01/09 04:15:11;;;;;;;;;;;;;;;;;;5030107;28;20018;-70
2021/01/09 04:17:37;;;;;;;;;;;;;;;;;;5030966;28;19943;-69
2021/01/09 04:20:03;;;;;;;;;;;;;;;;;;5030720;28;20354;-72
2021/01/09 04:22:29;;;;;;;;;;;;;;;;;;5060711;28;19967;-69
2021/01/09 04:24:55;;;;;;;;;;;;;;;;;;5031071;28;20003;-71
2021/01/09 04:27:21;;;;;;;;;;;;;;;;;;5031668;28;19956;-69
2021/01/09 04:29:46;;;;;;;;;;;;;;;;;;5054122;28;20391;-70
2021/01/09 04:32:12;;;;;;;;;;;;;;;;;;5052739;28;19916;-71
2021/01/09 04:34:38;;;;;;;;;;;;;;;;;;5053876;28;19970;-70
2021/01/09 04:37:04;;;;;;;;;;;;;;;;;;5052237;28;20468;-69
2021/01/09 04:39:31;;;;;;;;;;;;;;;;;;5038031;28;21360;-69
2021/01/09 04:41:57;;;;;;;;;;;;;;;;;;5040567;28;19917;-70
2021/01/09 04:44:23;;;;;;;;;;;;;;;;;;5034890;28;19910;-70
2021/01/09 04:46:50;;;;;;;;;;;;;;;;;;5034745;28;19913;-70
2021/01/09 04:49:16;;;;;;;;;;;;;;;;;;5034434;28;20388;-71
2021/01/09 04:51:42;;;;;;;;;;;;;;;;;;5034769;28;19991;-70
2021/01/09 04:54:08;;;;;;;;;;;;;;;;;;5044260;28;20419;-70
2021/01/09 04:56:34;;;;;;;;;;;;;;;;;;5053943;28;19908;-70
2021/01/09 04:59:00;;;;;;;;;;;;;;;;;;5052994;28;19917;-71
2021/01/09 05:01:26;;;;;;;;;;;;;;;;;;5055189;28;19909;-70
2021/01/09 05:03:52;;;;;;;;;;;;;;;;;;5052430;28;19948;-70
2021/01/09 05:06:17;;;;;;;;;;;;;;;;;;5053735;28;19955;-71
2021/01/09 05:08:43;;;;;;;;;;;;;;;;;;5044901;28;19943;-70
2021/01/09 05:11:09;;;;;;;;;;;;;;;;;;5038181;28;19940;-71
2021/01/09 05:13:35;;;;;;;;;;;;;;;;;;5032674;28;19972;-70
2021/01/09 05:16:01;;;;;;;;;;;;;;;;;;5034331;28;19909;-70
2021/01/09 05:18:27;;;;;;;;;;;;;;;;;;5032531;28;19960;-70
2021/01/09 05:20:53;;;;;;;;;;;;;;;;;;5034256;28;20000;-70
2021/01/09 05:23:19;;;;;;;;;;;;;;;;;;5033776;28;20011;-71
2021/01/09 05:25:45;;;;;;;;;;;;;;;;;;5033465;28;19996;-70
2021/01/09 05:28:11;;;;;;;;;;;;;;;;;;5046072;28;19909;-70
2021/01/09 05:30:37;;;;;;;;;;;;;;;;;;5065099;28;19982;-70
2021/01/09 05:33:02;;;;;;;;;;;;;;;;;;5056061;28;19916;-70
2021/01/09 05:35:28;;;;;;;;;;;;;;;;;;5053786;28;19920;-71
2021/01/09 05:37:54;;;;;;;;;;;;;;;;;;5043035;28;20002;-70
2021/01/09 05:40:20;;;;;;;;;;;;;;;;;;5045792;28;20072;-71
2021/01/09 05:42:48;;;;;;;;;;;;;;;;;;5035919;28;19955;-71
2021/01/09 05:45:14;;;;;;;;;;;;;;;;;;5033335;28;19921;-71
2021/01/09 05:47:40;;;;;;;;;;;;;;;;;;5033411;28;20355;-70
2021/01/09 05:50:06;;;;;;;;;;;;;;;;;;5033555;28;19951;-69
2021/01/09 05:52:32;;;;;;;;;;;;;;;;;;5033565;28;19996;-69
2021/01/09 05:54:58;;;;;;;;;;;;;;;;;;5032100;28;20004;-72
2021/01/09 05:57:24;;;;;;;;;;;;;;;;;;5033271;28;19916;-72
2021/01/09 05:59:50;;;;;;;;;;;;;;;;;;5035763;28;20006;-70
2021/01/09 06:02:16;;;;;;;;;;;;;;;;;;5038825;28;19997;-70
2021/01/09 06:04:42;;;;;;;;;;;;;;;;;;5033125;28;19981;-71
2021/01/09 06:07:08;;;;;;;;;;;;;;;;;;5033411;28;19992;-70
2021/01/09 06:09:35;;;;;;;;;;;;;;;;;;5048562;28;19913;-72
2021/01/09 06:12:01;;;;;;;;;;;;;;;;;;5032152;28;19917;-72
2021/01/09 06:14:27;;;;;;;;;;;;;;;;;;5031845;28;19913;-72
2021/01/09 06:16:53;;;;;;;;;;;;;;;;;;5032978;28;19909;-71
2021/01/09 06:19:19;;;;;;;;;;;;;;;;;;5032452;28;19956;-72
2021/01/09 06:21:46;;;;;;;;;;;;;;;;;;5024760;28;19952;-71
2021/01/09 06:24:11;;;;;;;;;;;;;;;;;;5031666;28;20325;-72
2021/01/09 06:26:37;;;;;;;;;;;;;;;;;;5033070;28;19942;-72
2021/01/09 06:29:03;;;;;;;;;;;;;;;;;;5032591;28;19944;-72
2021/01/09 06:31:29;;;;;;;;;;;;;;;;;;5031502;28;20515;-73
2021/01/09 06:33:55;;;;;;;;;;;;;;;;;;5032641;28;20393;-72
2021/01/09 06:36:21;;;;;;;;;;;;;;;;;;5032656;28;19909;-72
2021/01/09 06:38:47;;;;;;;;;;;;;;;;;;5037144;28;19941;-70
2021/01/09 06:41:13;;;;;;;;;;;;;;;;;;5032074;28;20327;-72
2021/01/09 06:43:39;;;;;;;;;;;;;;;;;;5033827;28;19948;-72
2021/01/09 06:46:05;;;;;;;;;;;;;;;;;;5032545;28;19964;-73
2021/01/09 06:48:30;;;;;;;;;;;;;;;;;;5032798;28;19963;-72
2021/01/09 06:50:56;;;;;;;;;;;;;;;;;;5030362;28;19959;-72
2021/01/09 06:53:22;;;;;;;;;;;;;;;;;;5032257;28;19913;-69
2021/01/09 06:55:48;;;;;;;;;;;;;;;;;;5032354;28;19972;-72
2021/01/09 06:58:14;;;;;;;;;;;;;;;;;;5030122;28;19948;-73
2021/01/09 07:00:40;;;;;;;;;;;;;;;;;;5041708;28;19909;-73
2021/01/09 07:03:06;;;;;;;;;;;;;;;;;;5032083;28;20395;-72
2021/01/09 07:05:32;;;;;;;;;;;;;;;;;;5031978;28;19955;-72
2021/01/09 07:07:59;;;;;;;;;;;;;;;;;;5029713;28;20024;-72
2021/01/09 07:10:26;;;;;;;;;;;;;;;;;;5067618;23;19925;-74
2021/01/09 07:12:52;;;;;;;;;;;;;;;;;;5035654;28;19916;-76
2021/01/09 07:15:18;;;;;;;;;;;;;;;;;;5031040;28;19914;-74
2021/01/09 07:17:44;;;;;;;;;;;;;;;;;;5022773;28;19939;-73
2021/01/09 07:20:10;;;;;;;;;;;;;;;;;;5031482;28;20511;-75
2021/01/09 07:22:35;;;;;;;;;;;;;;;;;;5027885;28;19992;-73
2021/01/09 07:25:01;;;;;;;;;;;;;;;;;;5028225;28;19967;-76
2021/01/09 07:27:27;;;;;;;;;;;;;;;;;;5021076;28;19949;-76
2021/01/09 07:29:53;;;;;;;;;;;;;;;;;;5033614;28;19944;-76
2021/01/09 07:32:19;;;;;;;;;;;;;;;;;;5047430;28;19955;-76
2021/01/09 07:34:45;;;;;;;;;;;;;;;;;;5054619;28;19971;-75
2021/01/09 07:37:11;;;;;;;;;;;;;;;;;;5057145;28;19924;-74
2021/01/09 07:39:37;;;;;;;;;;;;;;;;;;5053797;28;19991;-75
2021/01/09 07:42:03;;;;;;;;;;;;;;;;;;5032813;28;20394;-75
2021/01/09 07:44:34;;;;;;;;;;;;;;;;;;5032768;28;19916;-75
2021/01/09 07:47:05;;;;;;;;;;;;;;;;;;5036641;28;19912;-75
2021/01/09 07:49:31;;;;;;;;;;;;;;;;;;5035668;28;19999;-75
2021/01/09 07:51:57;;;;;;;;;;;;;;;;;;5035841;28;20000;-75
2021/01/09 07:54:22;;;;;;;;;;;;;;;;;;5035333;28;19908;-75
2021/01/09 07:56:48;;;;;;;;;;;;;;;;;;5031842;28;19909;-75
2021/01/09 07:59:14;;;;;;;;;;;;;;;;;;5060206;28;19963;-75
2021/01/09 08:01:40;;;;;;;;;;;;;;;;;;5038055;28;19955;-75
2021/01/09 08:04:06;;;;;;;;;;;;;;;;;;5039634;28;19913;-75
2021/01/09 08:06:32;;;;;;;;;;;;;;;;;;5039417;28;19912;-75
2021/01/09 08:08:58;;;;;;;;;;;;;;;;;;5039406;28;19909;-75
2021/01/09 08:11:24;;;;;;;;;;;;;;;;;;5039251;28;20383;-75
2021/01/09 08:13:50;;;;;;;;;;;;;;;;;;5050926;28;20007;-75
2021/01/09 08:16:16;;;;;;;;;;;;;;;;;;5039431;28;19944;-75
2021/01/09 08:18:43;;;;;;;;;;;;;;;;;;5039088;28;19979;-75
2021/01/09 08:21:09;;;;;;;;;;;;;;;;;;5039809;28;19909;-75
2021/01/09 08:23:35;;;;;;;;;;;;;;;;;;5049907;28;19914;-76
2021/01/09 08:26:01;;;;;;;;;;;;;;;;;;5057508;28;19952;-75
2021/01/09 08:28:27;;;;;;;;;;;;;;;;;;5039218;28;19908;-75
2021/01/09 08:30:52;;;;;;;;;;;;;;;;;;5039343;28;20383;-75
2021/01/09 08:33:18;;;;;;;;;;;;;;;;;;5039704;28;20286;-75
2021/01/09 08:35:45;;;;;;;;;;;;;;;;;;5038793;28;19959;-74
2021/01/09 08:38:11;;;;;;;;;;;;;;;;;;5038217;28;20416;-75
2021/01/09 08:40:37;;;;;;;;;;;;;;;;;;5041621;28;19925;-75
2021/01/09 08:43:03;;;;;;;;;;;;;;;;;;5045349;28;19958;-74
2021/01/09 08:45:29;;;;;;;;;;;;;;;;;;5060943;28;19963;-74
2021/01/09 08:47:58;;;;;;;;;;;;;;;;;;5057513;28;19916;-76
2021/01/09 08:50:24;;;;;;;;;;;;;;;;;;5039364;28;20397;-74
2021/01/09 08:52:50;;;;;;;;;;;;;;;;;;5039423;28;19917;-74
2021/01/09 08:55:16;;;;;;;;;;;;;;;;;;5039300;28;19950;-74
2021/01/09 08:57:42;;;;;;;;;;;;;;;;;;5043104;28;19952;-74
2021/01/09 09:00:08;;;;;;;;;;;;;;;;;;5044574;28;19919;-75
2021/01/09 09:02:34;;;;;;;;;;;;;;;;;;5039346;28;19997;-75
2021/01/09 09:05:03;;;;;;;;;;;;;;;;;;5039223;28;19913;-74
2021/01/09 09:07:32;;;;;;;;;;;;;;;;;;5039047;28;19909;-74
2021/01/09 09:09:58;;;;;;;;;;;;;;;;;;5039675;28;20290;-74
2021/01/09 09:12:24;;;;;;;;;;;;;;;;;;5040978;28;19913;-74
2021/01/09 09:14:50;;;;;;;;;;;;;;;;;;5020351;28;20012;-74
2021/01/09 09:17:16;;;;;;;;;;;;;;;;;;5016665;28;19956;-75
2021/01/09 09:19:42;;;;;;;;;;;;;;;;;;5016586;28;20026;-74
2021/01/09 09:22:08;;;;;;;;;;;;;;;;;;5016552;28;19944;-75
2021/01/09 09:24:34;;;;;;;;;;;;;;;;;;5022323;28;19910;-74
2021/01/09 09:27:00;;;;;;;;;;;;;;;;;;5047629;28;20051;-75
2021/01/09 09:29:27;;;;;;;;;;;;;;;;;;5046575;28;19960;-74
2021/01/09 09:31:53;;;;;;;;;;;;;;;;;;5027913;28;20196;-74
2021/01/09 09:34:19;;;;;;;;;;;;;;;;;;5030658;28;19917;-74
2021/01/09 09:36:45;;;;;;;;;;;;;;;;;;5021313;28;19931;-73
2021/01/09 09:39:11;;;;;;;;;;;;;;;;;;5015594;28;19971;-74
2021/01/09 09:41:37;;;;;;;;;;;;;;;;;;5018761;28;19952;-73
2021/01/09 09:44:03;;;;;;;;;;;;;;;;;;5041836;28;19951;-73
2021/01/09 09:46:29;;;;;;;;;;;;;;;;;;5039016;28;20408;-73
2021/01/09 09:48:55;;;;;;;;;;;;;;;;;;5040378;28;19981;-73
2021/01/09 09:51:21;;;;;;;;;;;;;;;;;;5034844;28;19909;-73
2021/01/09 09:53:48;;;;;;;;;;;;;;;;;;5038752;28;19908;-74
2021/01/09 09:56:14;;;;;;;;;;;;;;;;;;5039970;28;19912;-73
2021/01/09 09:58:39;;;;;;;;;;;;;;;;;;5034577;28;19959;-72
2021/01/09 10:01:05;;;;;;;;;;;;;;;;;;5034726;28;20395;-73
2021/01/09 10:03:31;;;;;;;;;;;;;;;;;;5053229;28;20287;-73
2021/01/09 10:05:57;;;;;;;;;;;;;;;;;;5035626;28;20331;-73
2021/01/09 10:08:23;;;;;;;;;;;;;;;;;;5035086;28;20522;-74
2021/01/09 10:10:49;;;;;;;;;;;;;;;;;;5024030;28;20442;-74
2021/01/09 10:15:46;;;;;;;;;;;;;;;;;;5070114;28;19924;-71
2021/01/09 10:18:12;;;;;;;;;;;;;;;;;;5052257;28;20335;-71
2021/01/09 10:20:38;;;;;;;;;;;;;;;;;;5054263;28;19944;-70
2021/01/09 10:23:04;;;;;;;;;;;;;;;;;;5053965;28;19944;-70
2021/01/09 10:25:30;;;;;;;;;;;;;;;;;;5059501;28;19962;-69
2021/01/09 10:27:56;;;;;;;;;;;;;;;;;;5032451;28;19956;-71
2021/01/09 10:30:22;;;;;;;;;;;;;;;;;;5040742;28;20384;-71
2021/01/09 10:32:48;;;;;;;;;;;;;;;;;;5034363;28;20430;-70
2021/01/09 10:35:14;;;;;;;;;;;;;;;;;;5051816;28;19909;-70
2021/01/09 10:37:40;;;;;;;;;;;;;;;;;;5031369;28;20054;-70
2021/01/09 10:40:06;;;;;;;;;;;;;;;;;;5034569;28;20373;-71
2021/01/09 10:42:31;;;;;;;;;;;;;;;;;;5045248;28;19955;-70
2021/01/09 10:44:57;;;;;;;;;;;;;;;;;;5054257;28;20008;-71
2021/01/09 10:47:23;;;;;;;;;;;;;;;;;;5052806;28;20333;-70
2021/01/09 10:49:49;;;;;;;;;;;;;;;;;;5051919;28;19915;-71
2021/01/09 10:52:15;;;;;;;;;;;;;;;;;;5045802;28;19919;-71
2021/01/09 10:54:41;;;;;;;;;;;;;;;;;;5032050;28;19944;-71
2021/01/09 10:57:07;;;;;;;;;;;;;;;;;;5031877;28;20280;-71
2021/01/09 10:59:33;;;;;;;;;;;;;;;;;;5030437;28;19914;-71
2021/01/09 11:02:03;;;;;;;;;;;;;;;;;;5031986;28;20005;-71
2021/01/09 11:04:28;;;;;;;;;;;;;;;;;;5017079;28;20136;-71
2021/01/09 11:06:54;;;;;;;;;;;;;;;;;;5042818;28;19909;-70
2021/01/09 11:09:20;;;;;;;;;;;;;;;;;;5022523;28;19913;-69
2021/01/09 11:11:46;;;;;;;;;;;;;;;;;;5035221;28;19917;-71
2021/01/09 11:14:12;;;;;;;;;;;;;;;;;;5035641;28;20361;-70
2021/01/09 11:16:38;;;;;;;;;;;;;;;;;;5061810;28;19947;-71
2021/01/09 11:19:04;;;;;;;;;;;;;;;;;;5044941;28;19967;-70
2021/01/09 11:21:30;;;;;;;;;;;;;;;;;;5043142;28;19909;-70
2021/01/09 11:23:56;;;;;;;;;;;;;;;;;;5051693;28;20380;-70
2021/01/09 11:26:22;;;;;;;;;;;;;;;;;;5033710;28;19967;-70
2021/01/09 11:28:48;;;;;;;;;;;;;;;;;;5050854;28;19913;-71
2021/01/09 11:31:14;;;;;;;;;;;;;;;;;;5051177;28;19909;-70
2021/01/09 11:33:40;;;;;;;;;;;;;;;;;;5058772;28;20384;-71
2021/01/09 11:36:06;;;;;;;;;;;;;;;;;;5052516;28;19956;-70
2021/01/09 11:38:32;;;;;;;;;;;;;;;;;;5070918;28;19944;-70
2021/01/09 11:40:58;;;;;;;;;;;;;;;;;;5053011;28;19931;-70
2021/01/09 11:43:24;;;;;;;;;;;;;;;;;;5053113;28;19958;-71
2021/01/09 11:45:50;;;;;;;;;;;;;;;;;;5048648;28;19944;-70
2021/01/09 11:48:16;;;;;;;;;;;;;;;;;;5061536;28;19973;-69
2021/01/09 11:50:42;;;;;;;;;;;;;;;;;;5070816;28;19962;-70
2021/01/09 11:53:08;;;;;;;;;;;;;;;;;;5047749;28;19948;-70
2021/01/09 11:55:34;;;;;;;;;;;;;;;;;;5064370;28;19908;-70
2021/01/09 11:58:00;;;;;;;;;;;;;;;;;;5052723;28;19912;-71
2021/01/09 12:00:26;;;;;;;;;;;;;;;;;;5070821;28;19947;-71
2021/01/09 12:02:52;;;;;;;;;;;;;;;;;;5070521;28;19920;-70
2021/01/09 12:05:17;;;;;;;;;;;;;;;;;;5064456;28;19916;-70
2021/01/09 12:07:43;;;;;;;;;;;;;;;;;;5064768;28;20540;-71
2021/01/09 12:10:09;;;;;;;;;;;;;;;;;;5052396;28;19963;-71
2021/01/09 12:12:35;;;;;;;;;;;;;;;;;;5070614;28;20008;-68
2021/01/09 12:15:01;;;;;;;;;;;;;;;;;;5070886;28;19955;-71
2021/01/09 12:17:27;;;;;;;;;;;;;;;;;;5070567;28;20380;-71
2021/01/09 12:19:53;;;;;;;;;;;;;;;;;;5070187;28;19958;-70
2021/01/09 12:22:19;;;;;;;;;;;;;;;;;;5034162;28;19967;-70
2021/01/09 12:24:45;;;;;;;;;;;;;;;;;;5044120;28;20407;-69
2021/01/09 12:27:11;;;;;;;;;;;;;;;;;;5065575;28;19912;-70
2021/01/09 12:29:37;;;;;;;;;;;;;;;;;;5057016;28;19956;-70
2021/01/09 12:32:03;;;;;;;;;;;;;;;;;;5067570;28;19913;-70
2021/01/09 12:34:28;;;;;;;;;;;;;;;;;;5052539;28;19913;-68
2021/01/09 12:36:54;;;;;;;;;;;;;;;;;;5070376;28;19980;-70
2021/01/09 12:39:20;;;;;;;;;;;;;;;;;;5069956;28;20486;-69
2021/01/09 12:41:46;;;;;;;;;;;;;;;;;;5070326;28;20330;-70
2021/01/09 12:44:12;;;;;;;;;;;;;;;;;;5070347;28;19958;-71
2021/01/09 12:46:42;;;;;;;;;;;;;;;;;;5070692;28;20376;-68
2021/01/09 12:49:08;;;;;;;;;;;;;;;;;;5071685;28;19950;-69
2021/01/09 12:51:33;;;;;;;;;;;;;;;;;;5065015;28;19909;-69
2021/01/09 12:53:59;;;;;;;;;;;;;;;;;;5070496;28;20507;-71
2021/01/09 12:56:25;;;;;;;;;;;;;;;;;;5074006;28;19995;-71
2021/01/09 12:58:51;;;;;;;;;;;;;;;;;;5063978;28;19978;-70
2021/01/09 13:01:17;;;;;;;;;;;;;;;;;;5072739;28;19963;-71
2021/01/09 13:03:43;;;;;;;;;;;;;;;;;;5073860;28;20398;-70
2021/01/09 13:06:09;;;;;;;;;;;;;;;;;;5074130;28;19905;-67
2021/01/09 13:08:36;;;;;;;;;;;;;;;;;;5064752;28;20387;-70
2021/01/09 13:11:01;;;;;;;;;;;;;;;;;;5065422;28;19921;-70
2021/01/09 13:13:27;;;;;;;;;;;;;;;;;;5055796;28;20471;-70
2021/01/09 13:15:53;;;;;;;;;;;;;;;;;;5055803;28;20019;-70
2021/01/09 13:18:21;;;;;;;;;;;;;;;;;;5035557;28;19995;-71
2021/01/09 13:20:47;;;;;;;;;;;;;;;;;;5037810;28;19948;-70
2021/01/09 13:23:13;;;;;;;;;;;;;;;;;;5051789;28;19912;-69
2021/01/09 13:25:39;;;;;;;;;;;;;;;;;;5053083;28;19940;-70
